Time;durP1;ratioP1;P1;durP2;ratioP2;P2;SDS_P1;SDS_P2;PMS_P1;PMS_P2;Temp;Humidity;BMP_temperature;BMP_pressure;BME280_temperature;BME280_humidity;BME280_pressure;Samples;Min_cycle;Max_cycle;Signal;HPM_P1;HPM_P2
2022/10/31 03:46:26;;;;;;;270.13;11.20;;;10.70;99.90;;;;;;5787434;23;89406;-91
2022/10/31 03:48:51;;;;;;;491.38;17.25;;;10.80;99.90;;;;;;4907916;28;87026;-89
2022/10/31 03:51:41;;;;;;;248.65;15.02;;;10.80;99.90;;;;;;4908577;28;90625;-89
2022/10/31 03:54:25;;;;;;;153.43;11.27;;;10.80;99.90;;;;;;4908152;28;86914;-86
2022/10/31 03:56:58;;;;;;;241.52;17.23;;;10.80;99.90;;;;;;4903217;28;86304;-86
2022/10/31 03:59:41;;;;;;;177.18;12.52;;;10.90;99.90;;;;;;4900642;28;86860;-87
2022/10/31 04:02:12;;;;;;;243.82;16.80;;;10.90;99.90;;;;;;4908422;28;87467;-86
2022/10/31 04:04:39;;;;;;;147.30;11.18;;;11.00;99.90;;;;;;4902597;28;86375;-86
2022/10/31 04:07:07;;;;;;;301.50;17.45;;;11.00;99.90;;;;;;4899161;28;88228;-86
2022/10/31 04:09:36;;;;;;;373.95;14.50;;;11.00;99.90;;;;;;4900903;28;90145;-87
2022/10/31 04:12:08;;;;;;;287.25;13.35;;;11.00;99.90;;;;;;4904871;28;88535;-86
2022/10/31 04:14:37;;;;;;;268.85;22.15;;;11.00;99.90;;;;;;4904592;28;86767;-91
2022/10/31 04:17:09;;;;;;;115.82;14.07;;;11.00;99.90;;;;;;4909203;28;86929;-90
2022/10/31 04:19:35;;;;;;;83.20;12.18;;;11.00;99.90;;;;;;4922482;28;89628;-91
2022/10/31 04:22:02;;;;;;;116.30;13.95;;;11.10;99.90;;;;;;4927861;28;87074;-90
2022/10/31 04:24:27;;;;;;;173.85;11.23;;;11.20;99.90;;;;;;4924234;28;86485;-91
2022/10/31 04:26:53;;;;;;;299.17;18.33;;;11.20;99.90;;;;;;4916828;23;86800;-71
2022/10/31 04:29:19;;;;;;;163.23;10.65;;;11.20;99.90;;;;;;4885267;28;87317;-72
2022/10/31 04:31:44;;;;;;;190.88;11.35;;;11.20;99.90;;;;;;4890096;28;87083;-71
2022/10/31 04:34:10;;;;;;;109.38;13.45;;;11.20;99.90;;;;;;4891646;28;87600;-73
2022/10/31 04:36:35;;;;;;;134.13;11.85;;;11.20;99.90;;;;;;4889939;28;86328;-71
2022/10/31 04:39:01;;;;;;;184.90;15.52;;;11.30;99.90;;;;;;4891577;28;86779;-72
2022/10/31 04:41:27;;;;;;;224.00;14.07;;;11.20;99.90;;;;;;4887134;28;87177;-70
2022/10/31 04:43:53;;;;;;;27.35;6.90;;;11.20;99.90;;;;;;4885152;28;86718;-73
2022/10/31 04:46:18;;;;;;;43.63;6.15;;;11.00;99.90;;;;;;4880269;28;86864;-73
2022/10/31 04:48:44;;;;;;;41.97;6.88;;;11.00;99.90;;;;;;4884997;28;87237;-72
2022/10/31 04:51:10;;;;;;;24.52;7.50;;;10.90;99.90;;;;;;4887306;28;86858;-70
2022/10/31 04:53:35;;;;;;;44.50;6.43;;;10.80;99.90;;;;;;4884573;28;87345;-70
2022/10/31 04:56:01;;;;;;;69.75;9.40;;;10.60;99.90;;;;;;4889081;28;86753;-72
2022/10/31 04:58:27;;;;;;;162.63;9.48;;;10.50;99.90;;;;;;4887672;28;88105;-72
2022/10/31 05:00:54;;;;;;;148.50;14.23;;;10.40;99.90;;;;;;4888365;28;89292;-72
2022/10/31 05:03:20;;;;;;;168.25;10.80;;;10.30;99.90;;;;;;4881509;28;87275;-73
2022/10/31 05:05:46;;;;;;;60.70;10.65;;;10.20;99.90;;;;;;4889146;28;86382;-72
2022/10/31 05:08:11;;;;;;;55.28;8.20;;;10.10;99.90;;;;;;4890349;28;87059;-73
2022/10/31 05:10:37;;;;;;;23.90;7.95;;;10.10;99.90;;;;;;4890358;28;86742;-72
2022/10/31 05:13:04;;;;;;;20.45;8.43;;;10.00;99.90;;;;;;4889516;28;86364;-70
2022/10/31 05:15:30;;;;;;;16.60;5.57;;;9.90;99.90;;;;;;4890058;28;85569;-73
2022/10/31 05:17:56;;;;;;;17.55;7.40;;;9.90;99.90;;;;;;4884286;28;87427;-70
2022/10/31 05:20:25;;;;;;;22.45;7.25;;;9.80;99.90;;;;;;4889632;28;87513;-72
2022/10/31 05:22:53;;;;;;;128.02;10.75;;;9.70;99.90;;;;;;4888869;28;87219;-71
2022/10/31 05:25:21;;;;;;;62.55;9.07;;;9.60;99.90;;;;;;4890471;28;86728;-71
2022/10/31 05:27:49;;;;;;;30.58;7.70;;;9.50;99.90;;;;;;4889418;28;87485;-72
2022/10/31 05:30:18;;;;;;;71.75;9.98;;;9.50;99.90;;;;;;4890252;28;87086;-72
2022/10/31 05:32:46;;;;;;;42.17;9.38;;;9.50;99.90;;;;;;4886451;28;87912;-72
2022/10/31 05:35:16;;;;;;;15.57;6.63;;;9.50;99.90;;;;;;4887869;28;86255;-71
2022/10/31 05:37:42;;;;;;;68.40;8.27;;;9.40;99.90;;;;;;4881314;28;87235;-72
2022/10/31 05:40:09;;;;;;;28.52;6.72;;;9.30;99.90;;;;;;4889918;28;86221;-72
2022/10/31 05:42:35;;;;;;;20.58;9.05;;;9.40;99.90;;;;;;4889670;28;88453;-72
2022/10/31 05:45:01;;;;;;;26.55;7.68;;;9.40;99.90;;;;;;4889719;28;86464;-72
2022/10/31 05:47:27;;;;;;;22.45;8.95;;;9.60;99.90;;;;;;4882901;28;87548;-72
2022/10/31 05:49:52;;;;;;;152.38;9.68;;;9.60;99.90;;;;;;4889478;28;87763;-72
2022/10/31 05:52:18;;;;;;;154.25;13.00;;;9.70;99.90;;;;;;4888510;28;86377;-72
2022/10/31 05:54:44;;;;;;;123.20;17.13;;;9.70;99.90;;;;;;4888370;28;86865;-72
2022/10/31 05:57:10;;;;;;;135.48;20.48;;;9.80;99.90;;;;;;4886943;28;86428;-72
2022/10/31 05:59:35;;;;;;;90.60;17.67;;;9.80;99.90;;;;;;4888771;28;87111;-71
2022/10/31 06:02:01;;;;;;;156.40;17.45;;;9.80;99.90;;;;;;4889835;28;86321;-71
2022/10/31 06:04:27;;;;;;;71.57;11.57;;;9.80;99.90;;;;;;4890092;28;85688;-71
2022/10/31 06:06:53;;;;;;;103.25;10.85;;;9.80;99.90;;;;;;4890794;28;86592;-71
2022/10/31 06:09:18;;;;;;;129.88;16.70;;;9.90;99.90;;;;;;4893428;28;87057;-72
2022/10/31 06:11:44;;;;;;;272.55;17.92;;;9.90;99.90;;;;;;4891488;28;88003;-71
2022/10/31 06:14:10;;;;;;;94.05;10.98;;;10.00;99.90;;;;;;4891611;28;86337;-72
2022/10/31 06:16:35;;;;;;;138.20;14.45;;;10.00;99.90;;;;;;4893681;28;86572;-72
2022/10/31 06:19:01;;;;;;;80.50;9.00;;;10.10;99.90;;;;;;4886718;28;87419;-74
2022/10/31 06:21:26;;;;;;;88.18;8.65;;;10.20;99.90;;;;;;4891644;28;86703;-72
2022/10/31 06:23:52;;;;;;;112.75;14.05;;;10.20;99.90;;;;;;4894262;28;86884;-73
2022/10/31 06:26:18;;;;;;;49.88;8.43;;;10.20;99.90;;;;;;4891734;28;87053;-72
2022/10/31 06:28:43;;;;;;;29.23;9.82;;;10.20;99.90;;;;;;4891339;28;86128;-72
2022/10/31 06:31:09;;;;;;;10.85;6.63;;;10.20;99.90;;;;;;4890652;28;86781;-71
2022/10/31 06:33:35;;;;;;;8.95;5.78;;;10.20;99.90;;;;;;4891842;28;86530;-72
2022/10/31 06:36:01;;;;;;;8.32;5.22;;;10.30;99.90;;;;;;4892924;28;87915;-71
2022/10/31 06:38:27;;;;;;;18.85;6.82;;;10.30;99.90;;;;;;4894808;28;87097;-72
2022/10/31 06:40:53;;;;;;;12.40;6.57;;;10.40;99.90;;;;;;4892605;28;87098;-71
2022/10/31 06:43:22;;;;;;;12.60;5.75;;;10.60;99.90;;;;;;4887668;28;86646;-72
2022/10/31 06:45:48;;;;;;;26.65;6.35;;;10.70;99.90;;;;;;4891922;28;87183;-72
2022/10/31 06:48:14;;;;;;;12.77;6.00;;;10.80;99.90;;;;;;4891163;28;87230;-72
2022/10/31 06:50:39;;;;;;;15.30;7.28;;;10.80;99.90;;;;;;4889615;28;86304;-72
2022/10/31 06:53:05;;;;;;;10.07;5.78;;;11.00;99.90;;;;;;4893076;28;86116;-72
2022/10/31 06:55:31;;;;;;;10.85;4.55;;;11.10;99.90;;;;;;4891147;28;86554;-72
2022/10/31 06:58:00;;;;;;;11.63;5.20;;;11.30;99.90;;;;;;4890890;28;87246;-72
2022/10/31 07:00:28;;;;;;;7.82;4.47;;;11.40;99.90;;;;;;4890753;28;87523;-71
2022/10/31 07:03:05;;;;;;;9.10;4.88;;;11.40;99.90;;;;;;4889229;28;87217;-72
2022/10/31 07:05:31;;;;;;;9.60;4.80;;;11.40;99.90;;;;;;4891369;28;86789;-72
2022/10/31 07:07:59;;;;;;;8.90;4.43;;;11.40;99.90;;;;;;4893140;28;87460;-72
2022/10/31 07:10:26;;;;;;;7.85;2.85;;;11.50;99.90;;;;;;4893601;28;86830;-72
2022/10/31 07:13:00;;;;;;;7.00;2.92;;;11.70;99.90;;;;;;4892486;28;86325;-72
2022/10/31 07:15:27;;;;;;;6.13;2.90;;;11.70;99.90;;;;;;4893638;28;87139;-72
2022/10/31 07:17:53;;;;;;;5.68;2.75;;;11.80;99.90;;;;;;4887563;28;87451;-72
2022/10/31 07:20:19;;;;;;;6.93;3.08;;;11.80;99.90;;;;;;4889548;28;86894;-71
2022/10/31 07:22:45;;;;;;;7.00;2.67;;;11.90;99.90;;;;;;4889319;28;86467;-72
2022/10/31 07:25:11;;;;;;;6.72;2.53;;;12.00;99.90;;;;;;4887771;28;87951;-72
2022/10/31 07:27:41;;;;;;;6.22;2.60;;;12.10;99.90;;;;;;4887597;28;87773;-72
2022/10/31 07:30:07;;;;;;;;;;;12.20;99.90;;;;;;4886952;28;86890;-72
2022/10/31 07:32:47;;;;;;;6.88;2.95;;;12.20;99.90;;;;;;4891443;28;87065;-72
2022/10/31 07:35:16;;;;;;;9.68;4.13;;;12.40;99.90;;;;;;4890705;28;87178;-72
2022/10/31 07:37:41;;;;;;;8.32;3.78;;;12.50;99.90;;;;;;4888335;28;87453;-73
2022/10/31 07:40:08;;;;;;;12.13;3.92;;;12.60;99.90;;;;;;4888901;28;86917;-73
2022/10/31 07:42:38;;;;;;;14.48;4.15;;;12.80;99.90;;;;;;4889456;28;86183;-72
2022/10/31 07:45:04;;;;;;;;;;;12.90;99.90;;;;;;4891676;28;87107;-72
2022/10/31 07:47:37;;;;;;;11.45;3.85;;;13.10;99.90;;;;;;4892444;28;86262;-72
2022/10/31 07:50:03;;;;;;;12.93;4.32;;;13.20;99.90;;;;;;4885642;28;87864;-73
2022/10/31 07:52:28;;;;;;;12.07;3.85;;;13.10;99.90;;;;;;4890901;28;86805;-72
2022/10/31 07:54:54;;;;;;;22.85;4.60;;;13.10;99.90;;;;;;4888614;28;86998;-72
2022/10/31 07:57:19;;;;;;;43.38;4.65;;;13.20;99.90;;;;;;4890463;28;87021;-73
2022/10/31 07:59:45;;;;;;;86.38;5.75;;;13.20;99.90;;;;;;4891363;28;86984;-72
2022/10/31 08:02:11;;;;;;;69.00;5.93;;;13.30;99.40;;;;;;4892790;28;87527;-73
2022/10/31 08:04:36;;;;;;;53.03;5.93;;;13.40;99.90;;;;;;4891457;28;87053;-72
2022/10/31 08:07:02;;;;;;;45.05;6.15;;;13.60;99.90;;;;;;4889160;28;87505;-72
2022/10/31 08:09:27;;;;;;;69.38;6.63;;;13.80;99.90;;;;;;4890116;28;86658;-72
2022/10/31 08:11:53;;;;;;;105.82;7.47;;;13.90;99.50;;;;;;4891226;28;86369;-72
2022/10/31 08:14:19;;;;;;;71.07;5.50;;;13.90;99.20;;;;;;4889966;28;88765;-71
2022/10/31 08:16:45;;;;;;;46.85;6.07;;;14.00;99.70;;;;;;4891404;28;87946;-71
2022/10/31 08:19:11;;;;;;;148.48;7.30;;;14.10;99.10;;;;;;4889190;28;86424;-71
2022/10/31 08:21:36;;;;;;;49.47;6.85;;;14.10;98.60;;;;;;4884994;28;86710;-71
2022/10/31 08:24:02;;;;;;;52.95;6.47;;;14.20;99.90;;;;;;4888600;28;89953;-71
2022/10/31 08:26:28;;;;;;;27.52;6.32;;;14.40;99.10;;;;;;4890360;28;88197;-71
2022/10/31 08:28:54;;;;;;;55.78;7.32;;;14.50;98.50;;;;;;4890432;28;86575;-71
2022/10/31 08:31:21;;;;;;;51.60;7.28;;;14.60;98.10;;;;;;4888828;28;86338;-70
2022/10/31 08:33:46;;;;;;;43.85;10.05;;;14.70;98.50;;;;;;4891392;28;87292;-71
2022/10/31 08:36:12;;;;;;;65.75;8.93;;;14.80;98.40;;;;;;4890136;28;86605;-71
2022/10/31 08:38:38;;;;;;;30.80;8.02;;;14.70;97.60;;;;;;4889736;28;87285;-72
2022/10/31 08:41:03;;;;;;;27.92;10.80;;;14.70;97.60;;;;;;4890709;28;87000;-72
2022/10/31 08:43:29;;;;;;;33.00;8.75;;;14.70;98.00;;;;;;4888630;28;86438;-71
2022/10/31 08:45:54;;;;;;;28.17;7.72;;;14.60;98.10;;;;;;4890786;28;87342;-72
2022/10/31 08:48:20;;;;;;;26.85;7.35;;;14.70;98.20;;;;;;4891064;28;86313;-71
2022/10/31 08:50:46;;;;;;;25.67;7.57;;;14.90;97.50;;;;;;4890981;28;86304;-72
2022/10/31 08:53:15;;;;;;;35.40;7.78;;;15.00;98.10;;;;;;4883500;28;88103;-71
2022/10/31 08:55:41;;;;;;;15.98;7.35;;;14.90;97.80;;;;;;4888259;28;86267;-71
2022/10/31 08:58:11;;;;;;;27.65;8.25;;;14.80;97.90;;;;;;4890372;28;86710;-71
2022/10/31 09:00:37;;;;;;;26.50;7.65;;;14.80;97.80;;;;;;4890456;28;87847;-74
2022/10/31 09:03:06;;;;;;;24.95;7.43;;;14.70;98.10;;;;;;4890086;28;87437;-71
2022/10/31 09:05:32;;;;;;;18.02;8.63;;;14.60;98.60;;;;;;4890072;28;87203;-71
2022/10/31 09:07:59;;;;;;;18.77;7.97;;;14.40;99.00;;;;;;4886804;28;86809;-72
2022/10/31 09:10:26;;;;;;;17.50;7.45;;;14.30;98.90;;;;;;4888377;28;86536;-72
2022/10/31 09:13:12;;;;;;;18.60;7.63;;;14.30;99.60;;;;;;4890216;28;87589;-72
2022/10/31 09:15:41;;;;;;;18.55;7.60;;;14.30;99.70;;;;;;4890291;28;86987;-72
2022/10/31 09:18:08;;;;;;;21.10;8.27;;;14.10;99.90;;;;;;4890071;28;86343;-71
2022/10/31 09:20:35;;;;;;;16.45;8.57;;;14.10;99.90;;;;;;4886585;28;85786;-72
2022/10/31 09:23:15;;;;;;;19.45;8.52;;;14.20;99.90;;;;;;4886121;28;86671;-72
2022/10/31 09:25:41;;;;;;;14.68;8.18;;;14.30;99.90;;;;;;4887907;28;86887;-71
2022/10/31 09:28:10;;;;;;;18.15;8.13;;;14.40;99.90;;;;;;4888972;28;87605;-72
2022/10/31 09:30:36;;;;;;;16.95;8.00;;;14.50;99.90;;;;;;4888414;28;86454;-72
2022/10/31 09:33:11;;;;;;;17.92;8.30;;;14.70;99.90;;;;;;4888062;28;87099;-71
2022/10/31 09:35:37;;;;;;;16.08;8.38;;;15.00;99.90;;;;;;4889303;28;87126;-71
2022/10/31 09:38:09;;;;;;;16.85;7.30;;;15.40;99.40;;;;;;4886324;28;86360;-71
2022/10/31 09:40:42;;;;;;;17.98;7.82;;;15.60;98.70;;;;;;4890657;28;86741;-71
2022/10/31 09:43:42;;;;;;;15.07;7.50;;;15.80;97.80;;;;;;4891082;28;86599;-72
2022/10/31 09:46:14;;;;;;;15.40;7.35;;;16.00;96.50;;;;;;4891042;28;86184;-72
2022/10/31 09:48:54;;;;;;;18.75;8.82;;;16.00;96.10;;;;;;4893786;28;87436;-72
2022/10/31 09:51:28;;;;;;;16.73;8.38;;;16.00;96.30;;;;;;4891959;28;86875;-71
2022/10/31 09:54:35;;;;;;;15.95;7.47;;;16.00;96.40;;;;;;4887017;28;88038;-71
2022/10/31 09:57:01;;;;;;;16.10;7.40;;;16.00;96.00;;;;;;4867141;28;87191;-71
2022/10/31 09:59:33;;;;;;;16.67;7.20;;;16.30;95.00;;;;;;4885610;28;86772;-72
2022/10/31 10:02:16;;;;;;;13.32;7.00;;;16.60;93.70;;;;;;4892440;28;87008;-72
2022/10/31 10:05:00;;;;;;;18.25;7.30;;;16.80;93.70;;;;;;4892878;28;87133;-72
2022/10/31 10:07:32;;;;;;;19.05;8.10;;;16.80;92.80;;;;;;4891028;28;86865;-72
2022/10/31 10:10:01;;;;;;;14.63;7.53;;;16.60;93.20;;;;;;4889068;28;86923;-72
2022/10/31 10:13:04;;;;;;;12.75;6.80;;;16.60;93.50;;;;;;4889416;28;86348;-71
2022/10/31 10:15:46;;;;;;;14.88;7.00;;;16.60;93.20;;;;;;4891390;28;87028;-71
2022/10/31 10:18:21;;;;;;;13.50;6.40;;;16.60;92.90;;;;;;4892061;28;87263;-71
2022/10/31 10:20:56;;;;;;;15.38;7.05;;;16.70;92.80;;;;;;4890827;28;87754;-73
2022/10/31 10:23:31;;;;;;;13.23;6.30;;;16.60;93.00;;;;;;4891636;28;86744;-72
2022/10/31 10:26:18;;;;;;;12.93;6.93;;;16.60;92.30;;;;;;4884293;28;87291;-72
2022/10/31 10:29:16;;;;;;;13.07;6.80;;;16.70;92.90;;;;;;4888904;28;88387;-73
2022/10/31 10:31:45;;;;;;;14.50;6.70;;;16.70;92.30;;;;;;4887402;28;86428;-72
2022/10/31 10:34:37;;;;;;;15.75;7.00;;;16.40;93.20;;;;;;4892063;28;86326;-71
2022/10/31 10:37:28;;;;;;;16.08;6.70;;;16.50;92.70;;;;;;4890437;28;87537;-72
2022/10/31 10:39:58;;;;;;;13.10;6.82;;;16.60;92.70;;;;;;4892103;28;87741;-72
2022/10/31 10:48:35;;;;;;;12.40;6.05;;;16.80;92.40;;;;;;4887806;28;87322;-72
2022/10/31 10:51:03;;;;;;;13.52;6.20;;;16.90;91.70;;;;;;4892460;28;88016;-73
2022/10/31 10:54:01;;;;;;;13.00;6.40;;;16.80;91.00;;;;;;4887914;28;86386;-71
2022/10/31 10:56:32;;;;;;;12.55;6.60;;;16.80;91.50;;;;;;4889314;28;86331;-73
2022/10/31 10:58:58;;;;;;;10.02;5.55;;;17.00;91.20;;;;;;4890850;28;86634;-71
2022/10/31 11:01:24;;;;;;;11.77;5.78;;;17.00;90.30;;;;;;4890344;28;86274;-72
2022/10/31 11:03:50;;;;;;;11.93;5.80;;;17.10;90.30;;;;;;4890483;28;86293;-72
2022/10/31 11:06:21;;;;;;;11.88;5.50;;;17.30;90.30;;;;;;4890555;28;85694;-71
2022/10/31 11:08:48;;;;;;;11.25;5.30;;;17.60;89.80;;;;;;4886377;28;88376;-73
2022/10/31 11:11:13;;;;;;;10.45;5.63;;;17.80;88.90;;;;;;4888312;28;86700;-72
2022/10/31 11:13:42;;;;;;;14.00;6.57;;;18.00;87.70;;;;;;4889220;28;87228;-72
2022/10/31 11:16:11;;;;;;;11.48;5.70;;;18.00;87.60;;;;;;4887138;28;86339;-73
2022/10/31 11:18:41;;;;;;;11.70;5.78;;;18.10;87.70;;;;;;4888710;28;86912;-71
2022/10/31 11:21:23;;;;;;;11.65;5.82;;;18.20;86.80;;;;;;4888336;28;88619;-72
2022/10/31 11:23:49;;;;;;;16.27;7.95;;;18.20;85.90;;;;;;4887544;28;88336;-72
2022/10/31 11:26:21;;;;;;;13.50;6.53;;;17.90;85.60;;;;;;4882300;28;87071;-72
2022/10/31 11:28:58;;;;;;;11.38;5.35;;;17.80;85.60;;;;;;4888577;28;87291;-72
2022/10/31 11:31:25;;;;;;;12.23;5.43;;;17.50;85.40;;;;;;4885306;28;86824;-72
2022/10/31 11:34:01;;;;;;;12.98;4.90;;;17.30;88.10;;;;;;4885802;28;86461;-71
2022/10/31 11:36:30;;;;;;;15.55;5.88;;;17.30;88.10;;;;;;4885531;28;87101;-71
2022/10/31 11:38:58;;;;;;;11.80;5.65;;;17.00;87.60;;;;;;4887572;28;87730;-72
2022/10/31 11:41:36;;;;;;;12.05;5.57;;;16.70;87.80;;;;;;4881054;28;87141;-72
2022/10/31 11:44:29;;;;;;;14.50;5.90;;;16.40;90.10;;;;;;4891930;28;86708;-72
2022/10/31 11:46:59;;;;;;;11.85;6.00;;;16.20;90.20;;;;;;4890543;28;86441;-71
2022/10/31 11:49:34;;;;;;;13.02;6.20;;;16.00;91.10;;;;;;4889895;28;86727;-70
2022/10/31 11:52:04;;;;;;;15.32;6.20;;;16.00;91.80;;;;;;4886261;28;88251;-71
2022/10/31 11:54:42;;;;;;;13.02;6.20;;;15.90;92.00;;;;;;4885196;28;87278;-72
2022/10/31 11:57:29;;;;;;;19.50;6.65;;;15.70;92.10;;;;;;4887559;28;85716;-72
2022/10/31 11:59:58;;;;;;;14.05;6.53;;;15.60;92.60;;;;;;4889927;28;87599;-72
2022/10/31 12:02:24;;;;;;;18.42;6.47;;;15.60;92.50;;;;;;4887813;28;86533;-71
2022/10/31 12:05:11;;;;;;;12.73;5.68;;;15.60;92.60;;;;;;4889602;28;87277;-71
2022/10/31 12:07:36;;;;;;;10.45;5.75;;;15.70;92.70;;;;;;4891688;28;86780;-71
2022/10/31 12:10:11;;;;;;;12.98;6.25;;;15.60;92.20;;;;;;4891479;28;87252;-72
2022/10/31 12:12:59;;;;;;;13.43;6.22;;;15.60;92.20;;;;;;4891353;28;86664;-71
2022/10/31 12:15:36;;;;;;;12.15;5.88;;;15.70;92.00;;;;;;4888380;28;87061;-71
2022/10/31 12:18:48;;;;;;;10.80;5.32;;;15.70;91.40;;;;;;4891912;28;86230;-72
2022/10/31 12:21:29;;;;;;;9.85;5.78;;;15.80;92.10;;;;;;4889895;28;87574;-72
2022/10/31 12:24:17;;;;;;;13.00;5.45;;;15.80;92.00;;;;;;4891230;28;86314;-72
2022/10/31 12:27:10;;;;;;;10.23;5.65;;;15.80;91.30;;;;;;4887829;28;86902;-71
2022/10/31 12:30:03;;;;;;;10.77;5.25;;;15.90;91.70;;;;;;4891683;28;86330;-72
2022/10/31 12:32:38;;;;;;;9.68;5.07;;;15.90;91.40;;;;;;4890852;28;88074;-71
2022/10/31 12:35:30;;;;;;;12.27;5.45;;;15.90;91.70;;;;;;4889029;28;87086;-72
2022/10/31 12:38:01;;;;;;;9.95;5.13;;;16.00;91.20;;;;;;4887675;28;86263;-71
2022/10/31 12:41:03;;;;;;;11.52;5.53;;;16.00;91.30;;;;;;4887971;28;86891;-72
2022/10/31 12:43:52;;;;;;;15.13;6.65;;;16.10;91.90;;;;;;4891090;28;87309;-71
2022/10/31 12:46:31;;;;;;;12.65;6.63;;;16.10;92.10;;;;;;4889873;28;87068;-71
2022/10/31 12:49:12;;;;;;;14.88;7.50;;;16.10;91.60;;;;;;4892493;28;86543;-71
2022/10/31 12:51:51;;;;;;;12.32;6.68;;;16.20;92.50;;;;;;4892112;28;87113;-71
2022/10/31 12:54:43;;;;;;;14.77;6.88;;;16.30;91.50;;;;;;4890008;28;86832;-71
2022/10/31 12:57:40;;;;;;;11.73;6.22;;;16.40;92.00;;;;;;4881486;28;86673;-73
2022/10/31 13:00:18;;;;;;;12.65;7.22;;;16.40;92.00;;;;;;4888024;28;87816;-71
2022/10/31 13:03:19;;;;;;;14.32;6.72;;;16.50;91.60;;;;;;4888521;28;86818;-71
2022/10/31 13:05:50;;;;;;;10.50;6.75;;;16.60;91.70;;;;;;4869458;28;87253;-71
2022/10/31 13:08:28;;;;;;;14.18;6.50;;;16.70;91.10;;;;;;4886203;28;86905;-70
2022/10/31 13:11:39;;;;;;;13.38;7.38;;;16.60;90.60;;;;;;4889765;28;86302;-71
2022/10/31 13:14:30;;;;;;;12.05;6.55;;;16.60;90.50;;;;;;4876792;28;87056;-71
2022/10/31 13:16:56;;;;;;;10.95;6.55;;;16.70;90.30;;;;;;4890848;28;86723;-71
2022/10/31 13:19:41;;;;;;;11.07;6.10;;;16.70;89.60;;;;;;4890494;28;87152;-71
2022/10/31 13:22:12;;;;;;;12.27;6.97;;;16.50;90.30;;;;;;4890055;28;86355;-71
2022/10/31 13:24:52;;;;;;;12.55;6.40;;;16.30;90.80;;;;;;4890229;28;86315;-72
2022/10/31 13:27:24;;;;;;;10.88;6.43;;;16.30;91.10;;;;;;4888335;28;88801;-72
2022/10/31 13:29:52;;;;;;;11.98;6.55;;;16.30;91.40;;;;;;4885931;28;87372;-71
2022/10/31 13:32:19;;;;;;;14.30;6.80;;;16.30;91.30;;;;;;4890128;28;87100;-71
2022/10/31 13:34:53;;;;;;;13.38;8.05;;;16.30;91.20;;;;;;4890766;28;86316;-71
2022/10/31 13:37:43;;;;;;;13.98;7.38;;;16.20;91.40;;;;;;4889738;28;87196;-71
2022/10/31 13:40:09;;;;;;;13.75;7.13;;;16.20;91.70;;;;;;4890441;28;86699;-71
2022/10/31 13:42:53;;;;;;;14.85;7.80;;;16.20;91.80;;;;;;4889057;28;86744;-71
2022/10/31 13:45:21;;;;;;;12.95;6.72;;;16.10;92.10;;;;;;4890744;28;86192;-72
2022/10/31 13:48:15;;;;;;;12.45;7.47;;;16.00;92.10;;;;;;4890054;28;88500;-70
2022/10/31 13:50:42;;;;;;;13.00;7.60;;;15.90;91.90;;;;;;4890528;28;86991;-70
2022/10/31 13:53:19;;;;;;;14.38;7.65;;;15.70;92.30;;;;;;4889403;28;87529;-71
2022/10/31 13:55:50;;;;;;;12.82;7.78;;;15.70;92.70;;;;;;4889242;28;86563;-71
2022/10/31 13:58:30;;;;;;;18.83;7.80;;;15.70;93.00;;;;;;4889184;28;87157;-71
2022/10/31 14:00:59;;;;;;;12.85;7.45;;;15.60;93.10;;;;;;4882023;28;86873;-71
2022/10/31 14:03:25;;;;;;;14.52;8.15;;;15.60;93.70;;;;;;4884865;28;87271;-72
2022/10/31 14:05:55;;;;;;;16.35;8.32;;;15.60;93.50;;;;;;4885578;28;86378;-73
2022/10/31 14:08:24;;;;;;;14.52;8.20;;;15.60;93.40;;;;;;4880439;28;87189;-72
2022/10/31 14:10:54;;;;;;;13.75;8.23;;;15.60;93.20;;;;;;4890183;28;87090;-70
2022/10/31 14:13:25;;;;;;;15.98;7.65;;;15.50;93.60;;;;;;4889631;28;86631;-71
2022/10/31 14:16:04;;;;;;;12.68;8.60;;;15.50;93.70;;;;;;4890066;28;86737;-71
2022/10/31 14:18:31;;;;;;;12.95;7.60;;;15.40;93.90;;;;;;4888498;28;88218;-71
2022/10/31 14:20:57;;;;;;;15.30;7.75;;;15.40;93.90;;;;;;4888869;28;87861;-71
2022/10/31 14:23:40;;;;;;;11.68;7.22;;;15.50;94.20;;;;;;4886867;28;86468;-71
2022/10/31 14:26:25;;;;;;;15.23;7.75;;;15.50;94.10;;;;;;4890883;28;86726;-71
2022/10/31 14:28:52;;;;;;;14.93;7.53;;;15.50;94.10;;;;;;4892050;28;87204;-71
2022/10/31 14:31:35;;;;;;;16.42;7.97;;;15.50;94.10;;;;;;4888188;28;88423;-70
2022/10/31 14:34:27;;;;;;;15.07;8.90;;;15.50;94.30;;;;;;4892335;28;87447;-71
2022/10/31 14:36:52;;;;;;;15.85;8.00;;;15.50;94.20;;;;;;4878436;28;86241;-71
2022/10/31 14:39:26;;;;;;;16.80;8.23;;;15.50;94.30;;;;;;4887890;28;87276;-71
2022/10/31 14:42:28;;;;;;;16.65;8.32;;;15.50;94.40;;;;;;4889191;28;87404;-71
2022/10/31 14:45:02;;;;;;;15.63;8.68;;;15.40;94.60;;;;;;4886719;28;87272;-71
2022/10/31 14:47:39;;;;;;;16.10;8.93;;;15.40;94.60;;;;;;4889518;28;86322;-71
2022/10/31 14:50:32;;;;;;;16.25;8.07;;;15.40;94.80;;;;;;4883530;28;87602;-72
2022/10/31 14:53:02;;;;;;;18.88;9.60;;;15.40;94.80;;;;;;4888916;28;88109;-70
2022/10/31 14:55:28;;;;;;;20.05;8.18;;;15.40;94.80;;;;;;4884346;28;86311;-71
2022/10/31 14:57:58;;;;;;;14.80;7.80;;;15.40;94.80;;;;;;4883428;28;87663;-70
2022/10/31 15:00:25;;;;;;;18.38;8.63;;;15.40;95.00;;;;;;4882128;28;88515;-71
2022/10/31 15:03:05;;;;;;;16.83;8.20;;;15.30;95.00;;;;;;4892609;28;86258;-71
2022/10/31 15:05:34;;;;;;;18.35;9.95;;;15.30;95.00;;;;;;4889823;28;88313;-71
2022/10/31 15:07:59;;;;;;;17.58;9.18;;;15.30;95.00;;;;;;4889740;28;86382;-72
2022/10/31 15:10:27;;;;;;;18.05;10.70;;;15.30;95.00;;;;;;4889190;28;88143;-71
2022/10/31 15:12:53;;;;;;;22.40;12.55;;;15.30;95.10;;;;;;4889897;28;87252;-70
2022/10/31 15:15:26;;;;;;;18.60;11.20;;;15.20;95.60;;;;;;4882579;28;86296;-70
2022/10/31 15:17:59;;;;;;;20.23;10.98;;;15.20;95.50;;;;;;4885586;28;86767;-71
2022/10/31 15:20:30;;;;;;;16.70;10.10;;;15.20;95.70;;;;;;4881540;28;88291;-71
2022/10/31 15:22:58;;;;;;;25.50;12.10;;;15.10;95.80;;;;;;4883673;28;87411;-71
2022/10/31 15:25:25;;;;;;;18.98;9.85;;;14.90;96.60;;;;;;4883820;28;87051;-70
2022/10/31 15:27:52;;;;;;;19.17;10.98;;;14.90;96.90;;;;;;4893022;28;86232;-71
2022/10/31 15:30:22;;;;;;;20.20;10.02;;;14.80;97.40;;;;;;4890402;28;87296;-70
2022/10/31 15:32:48;;;;;;;;;;;14.70;97.70;;;;;;4888975;28;88066;-72
2022/10/31 15:35:29;;;;;;;23.13;11.48;;;14.60;98.20;;;;;;4887371;28;87978;-72
2022/10/31 15:37:56;;;;;;;28.40;14.77;;;14.50;98.20;;;;;;4880553;28;86496;-71
2022/10/31 15:40:25;;;;;;;22.02;11.07;;;14.50;98.10;;;;;;4882480;28;88179;-70
2022/10/31 15:43:00;;;;;;;21.15;12.32;;;14.40;98.90;;;;;;4884683;28;87038;-71
2022/10/31 15:45:29;;;;;;;50.17;23.73;;;14.30;99.90;;;;;;4884048;28;86770;-71
2022/10/31 15:48:12;;;;;;;89.20;41.80;;;14.20;99.70;;;;;;4883984;28;86734;-71
2022/10/31 15:50:45;;;;;;;22.38;11.85;;;14.10;99.60;;;;;;4873817;28;87050;-71
2022/10/31 15:53:28;;;;;;;24.75;12.68;;;14.00;99.90;;;;;;4885201;28;86385;-71
2022/10/31 15:56:01;;;;;;;25.83;12.82;;;13.90;99.90;;;;;;4883053;28;88235;-72
2022/10/31 15:58:28;;;;;;;21.70;12.23;;;13.80;99.90;;;;;;4884916;28;87122;-72
2022/10/31 16:01:06;;;;;;;29.17;14.20;;;13.70;99.90;;;;;;4882226;28;87899;-70
2022/10/31 16:03:34;;;;;;;25.20;14.00;;;13.70;99.90;;;;;;4885762;28;86795;-72
2022/10/31 16:06:03;;;;;;;20.90;12.23;;;13.50;99.90;;;;;;4887263;28;86998;-71
2022/10/31 16:08:29;;;;;;;28.70;16.27;;;13.40;99.90;;;;;;4886308;28;86935;-71
2022/10/31 16:10:56;;;;;;;22.00;12.45;;;13.30;99.90;;;;;;4881500;28;88403;-71
2022/10/31 16:13:33;;;;;;;26.85;14.38;;;13.10;99.90;;;;;;4887065;28;87016;-71
2022/10/31 16:16:01;;;;;;;28.13;15.90;;;13.00;99.90;;;;;;4887115;28;86756;-71
2022/10/31 16:18:34;;;;;;;28.77;17.33;;;12.90;99.90;;;;;;4882252;28;85728;-71
2022/10/31 16:21:00;;;;;;;24.52;14.60;;;12.80;99.90;;;;;;4882264;28;87313;-72
2022/10/31 16:23:27;;;;;;;24.13;13.95;;;12.80;99.90;;;;;;4881682;28;87115;-72
2022/10/31 16:25:53;;;;;;;28.63;15.98;;;12.70;99.90;;;;;;4885730;28;88836;-72
2022/10/31 16:28:21;;;;;;;24.08;14.68;;;12.60;99.90;;;;;;4885457;28;86924;-71
2022/10/31 16:30:51;;;;;;;24.45;13.43;;;12.50;99.90;;;;;;4887577;28;87303;-71
2022/10/31 16:33:36;;;;;;;25.35;14.25;;;12.50;99.90;;;;;;4875948;28;87087;-71
2022/10/31 16:36:27;;;;;;;27.10;14.00;;;12.50;99.90;;;;;;4882008;28;86367;-71
2022/10/31 16:38:57;;;;;;;25.08;13.05;;;12.40;99.90;;;;;;4888054;28;86878;-71
2022/10/31 16:41:24;;;;;;;25.52;13.75;;;12.40;99.90;;;;;;4888297;28;86649;-71
2022/10/31 16:43:50;;;;;;;29.13;15.07;;;12.40;99.90;;;;;;4890213;28;87042;-71
2022/10/31 16:46:21;;;;;;;29.30;15.95;;;12.30;99.90;;;;;;4889554;28;87044;-71
2022/10/31 16:48:47;;;;;;;37.58;17.33;;;12.30;99.90;;;;;;4888899;28;86659;-71
2022/10/31 16:51:13;;;;;;;26.50;15.02;;;12.20;99.90;;;;;;4888531;28;89126;-72